Terminal Aerodrome Forecast
Issued by NWS Jackson, MS

Home | Current Version | Previous Version | Text Only | Print | Product List | Glossary On
Versions: 1 2 3 4 5 6 7 8 9 10 11 12 13
289
FTUS44 KJAN 202327
TAFJAN
TAF
KJAN 202327Z 2100/2124 18009KT P6SM BKN070
     FM210400 16008KT 4SM SHRA BR BKN015 OVC040
     FM210800 17005KT 3SM SHRA BR BKN015 OVC025
     FM211500 10005KT 5SM SHRA BR BKN003 OVC050
     FM211700 23004KT 6SM -SHRA OVC008
     FM212000 30005KT P6SM -SHRA BKN015=

USA.gov is the U.S. government's official web portal to all federal, state and local government web resources and services.